Fort MacKay, Canada
Current Conditions -  °F | °C
As of 11:00 AM on Thursday 27 Nov 2014 (Local Time) from CYMM Reporting Station
Clear Clear  
Wind Chill: -6°   Ceiling: Unl
Heat Index: -6°   Visibility: 9mi
Dew Point: -11°   Wind: 3mph
Humidity: 77%   Direction: 10°N
Pressure: 30.4"   Gusts: NA
Location:  57°N, 111.48°W
Report Text: CYMM 271800Z AUTO 01003KT 9SM CLR M21/M24 A3040 RMK SLP338
Loading
Personal Weather Stations






























Interactive Weather Map New forecast layout! Learn more

10-Day Weather Forecast

Advertisements
Track Severe Weather on mobile